sensor_id;sensor_type;location;lat;lon;timestamp;pressure;altitude;pressure_sealevel;temperature
73265;BMP280;61493;51.008;14.088;2022-09-09T00:04:03;97590.25;;;11.93
73265;BMP280;61493;51.008;14.088;2022-09-09T00:06:43;97595.38;;;11.88
73265;BMP280;61493;51.008;14.088;2022-09-09T00:09:16;97588.44;;;11.90
73265;BMP280;61493;51.008;14.088;2022-09-09T00:11:51;97593.41;;;12.01
73265;BMP280;61493;51.008;14.088;2022-09-09T00:17:00;97591.94;;;12.00
73265;BMP280;61493;51.008;14.088;2022-09-09T00:19:43;97585.97;;;12.18
73265;BMP280;61493;51.008;14.088;2022-09-09T00:22:18;97578.81;;;12.27
73265;BMP280;61493;51.008;14.088;2022-09-09T00:24:54;97577.31;;;12.26
73265;BMP280;61493;51.008;14.088;2022-09-09T00:27:29;97582.22;;;12.28
73265;BMP280;61493;51.008;14.088;2022-09-09T00:30:21;97586.72;;;12.18
73265;BMP280;61493;51.008;14.088;2022-09-09T00:33:10;97579.72;;;12.12
73265;BMP280;61493;51.008;14.088;2022-09-09T00:35:39;97583.66;;;12.20
73265;BMP280;61493;51.008;14.088;2022-09-09T00:38:14;97593.53;;;12.19
73265;BMP280;61493;51.008;14.088;2022-09-09T00:40:52;97577.59;;;12.06
73265;BMP280;61493;51.008;14.088;2022-09-09T00:43:32;97575.47;;;12.14
73265;BMP280;61493;51.008;14.088;2022-09-09T00:51:36;97579.56;;;11.59
73265;BMP280;61493;51.008;14.088;2022-09-09T00:54:28;97583.84;;;11.43
73265;BMP280;61493;51.008;14.088;2022-09-09T01:02:19;97601.38;;;11.79
73265;BMP280;61493;51.008;14.088;2022-09-09T01:04:47;97588.16;;;11.75
73265;BMP280;61493;51.008;14.088;2022-09-09T01:07:19;97589.00;;;11.72
73265;BMP280;61493;51.008;14.088;2022-09-09T01:09:54;97603.03;;;11.64
73265;BMP280;61493;51.008;14.088;2022-09-09T01:15:40;97596.94;;;11.51
73265;BMP280;61493;51.008;14.088;2022-09-09T01:18:10;97600.69;;;11.53
73265;BMP280;61493;51.008;14.088;2022-09-09T01:21:22;97598.66;;;11.57
73265;BMP280;61493;51.008;14.088;2022-09-09T01:24:13;97602.50;;;11.56
73265;BMP280;61493;51.008;14.088;2022-09-09T01:26:43;97601.53;;;11.50
73265;BMP280;61493;51.008;14.088;2022-09-09T01:29:15;97592.56;;;11.69
73265;BMP280;61493;51.008;14.088;2022-09-09T01:32:02;97594.06;;;11.58
73265;BMP280;61493;51.008;14.088;2022-09-09T01:34:38;97594.81;;;11.58
73265;BMP280;61493;51.008;14.088;2022-09-09T01:37:07;97590.56;;;11.48
73265;BMP280;61493;51.008;14.088;2022-09-09T01:39:35;97588.97;;;11.38
73265;BMP280;61493;51.008;14.088;2022-09-09T01:42:02;97582.03;;;11.28
73265;BMP280;61493;51.008;14.088;2022-09-09T01:44:29;97574.44;;;11.17
73265;BMP280;61493;51.008;14.088;2022-09-09T01:46:54;97575.91;;;11.18
73265;BMP280;61493;51.008;14.088;2022-09-09T01:49:21;97576.00;;;11.14
73265;BMP280;61493;51.008;14.088;2022-09-09T01:51:50;97584.09;;;11.11
73265;BMP280;61493;51.008;14.088;2022-09-09T01:54:17;97579.53;;;11.11
73265;BMP280;61493;51.008;14.088;2022-09-09T02:10:27;97593.03;;;11.90
73265;BMP280;61493;51.008;14.088;2022-09-09T02:13:07;97585.56;;;11.85
73265;BMP280;61493;51.008;14.088;2022-09-09T02:15:42;97588.75;;;11.80
73265;BMP280;61493;51.008;14.088;2022-09-09T02:18:11;97588.91;;;11.76
73265;BMP280;61493;51.008;14.088;2022-09-09T02:20:38;97589.22;;;11.78
73265;BMP280;61493;51.008;14.088;2022-09-09T02:23:06;97587.53;;;11.71
73265;BMP280;61493;51.008;14.088;2022-09-09T02:25:34;97591.78;;;11.82
73265;BMP280;61493;51.008;14.088;2022-09-09T02:28:01;97588.66;;;11.83
73265;BMP280;61493;51.008;14.088;2022-09-09T02:30:29;97590.03;;;11.88
73265;BMP280;61493;51.008;14.088;2022-09-09T02:32:58;97579.47;;;11.97
73265;BMP280;61493;51.008;14.088;2022-09-09T02:35:25;97579.03;;;11.98
73265;BMP280;61493;51.008;14.088;2022-09-09T02:37:54;97587.69;;;11.90
73265;BMP280;61493;51.008;14.088;2022-09-09T02:40:21;97587.94;;;11.83
73265;BMP280;61493;51.008;14.088;2022-09-09T02:42:48;97596.72;;;11.70
73265;BMP280;61493;51.008;14.088;2022-09-09T02:45:19;97590.16;;;11.50
73265;BMP280;61493;51.008;14.088;2022-09-09T02:48:04;97593.25;;;11.48
73265;BMP280;61493;51.008;14.088;2022-09-09T02:50:34;97584.81;;;11.50
73265;BMP280;61493;51.008;14.088;2022-09-09T02:53:37;97592.47;;;11.60
73265;BMP280;61493;51.008;14.088;2022-09-09T02:56:09;97588.81;;;11.67
73265;BMP280;61493;51.008;14.088;2022-09-09T02:58:39;97593.41;;;11.66
73265;BMP280;61493;51.008;14.088;2022-09-09T03:01:04;97593.94;;;11.61
73265;BMP280;61493;51.008;14.088;2022-09-09T03:03:30;97595.66;;;11.55
73265;BMP280;61493;51.008;14.088;2022-09-09T03:05:56;97595.66;;;11.55
73265;BMP280;61493;51.008;14.088;2022-09-09T03:08:22;97590.06;;;11.40
73265;BMP280;61493;51.008;14.088;2022-09-09T03:10:47;97598.56;;;11.48
73265;BMP280;61493;51.008;14.088;2022-09-09T03:13:13;97598.03;;;11.53
73265;BMP280;61493;51.008;14.088;2022-09-09T03:15:40;97594.94;;;11.55
73265;BMP280;61493;51.008;14.088;2022-09-09T03:18:06;97591.84;;;11.56
73265;BMP280;61493;51.008;14.088;2022-09-09T03:20:31;97604.59;;;11.61
73265;BMP280;61493;51.008;14.088;2022-09-09T03:22:58;97606.28;;;11.68
73265;BMP280;61493;51.008;14.088;2022-09-09T03:25:24;97595.31;;;11.66
73265;BMP280;61493;51.008;14.088;2022-09-09T03:27:51;97596.97;;;11.63
73265;BMP280;61493;51.008;14.088;2022-09-09T03:30:23;97602.88;;;11.67
73265;BMP280;61493;51.008;14.088;2022-09-09T03:32:51;97603.97;;;11.70
73265;BMP280;61493;51.008;14.088;2022-09-09T03:35:17;97602.28;;;11.63
73265;BMP280;61493;51.008;14.088;2022-09-09T03:37:43;97608.13;;;11.58
73265;BMP280;61493;51.008;14.088;2022-09-09T03:40:09;97603.22;;;11.57
73265;BMP280;61493;51.008;14.088;2022-09-09T03:42:35;97599.50;;;11.54
73265;BMP280;61493;51.008;14.088;2022-09-09T03:45:03;97594.72;;;11.49
73265;BMP280;61493;51.008;14.088;2022-09-09T03:47:28;97594.22;;;11.41
73265;BMP280;61493;51.008;14.088;2022-09-09T03:49:54;97595.25;;;11.44
73265;BMP280;61493;51.008;14.088;2022-09-09T03:52:19;97598.88;;;11.37
73265;BMP280;61493;51.008;14.088;2022-09-09T03:54:46;97593.56;;;11.37
73265;BMP280;61493;51.008;14.088;2022-09-09T03:57:11;97590.66;;;11.44
73265;BMP280;61493;51.008;14.088;2022-09-09T03:59:38;97596.44;;;11.43
73265;BMP280;61493;51.008;14.088;2022-09-09T04:02:04;97600.50;;;11.48
73265;BMP280;61493;51.008;14.088;2022-09-09T04:04:29;97599.50;;;11.54
73265;BMP280;61493;51.008;14.088;2022-09-09T04:06:55;97595.25;;;11.44
73265;BMP280;61493;51.008;14.088;2022-09-09T04:09:20;97604.41;;;11.68
73265;BMP280;61493;51.008;14.088;2022-09-09T04:11:45;97605.66;;;11.77
73265;BMP280;61493;51.008;14.088;2022-09-09T04:14:11;97606.16;;;11.84
73265;BMP280;61493;51.008;14.088;2022-09-09T04:16:37;97603.19;;;11.82
73265;BMP280;61493;51.008;14.088;2022-09-09T04:19:03;97599.66;;;11.85
73265;BMP280;61493;51.008;14.088;2022-09-09T04:21:32;97591.91;;;11.78
73265;BMP280;61493;51.008;14.088;2022-09-09T04:23:58;97598.28;;;11.81
73265;BMP280;61493;51.008;14.088;2022-09-09T04:26:23;97605.66;;;11.77
73265;BMP280;61493;51.008;14.088;2022-09-09T04:28:49;97614.16;;;11.84
73265;BMP280;61493;51.008;14.088;2022-09-09T04:31:18;97612.34;;;11.81
73265;BMP280;61493;51.008;14.088;2022-09-09T04:33:45;97620.66;;;11.83
73265;BMP280;61493;51.008;14.088;2022-09-09T04:36:12;97605.28;;;11.87
73265;BMP280;61493;51.008;14.088;2022-09-09T04:38:37;97610.09;;;11.92
73265;BMP280;61493;51.008;14.088;2022-09-09T04:41:03;97616.16;;;11.93
73265;BMP280;61493;51.008;14.088;2022-09-09T04:43:28;97609.72;;;12.03
73265;BMP280;61493;51.008;14.088;2022-09-09T04:45:55;97623.06;;;12.03
73265;BMP280;61493;51.008;14.088;2022-09-09T04:48:21;97609.16;;;12.08
73265;BMP280;61493;51.008;14.088;2022-09-09T04:50:57;97612.28;;;12.28
73265;BMP280;61493;51.008;14.088;2022-09-09T04:53:22;97614.88;;;12.41
73265;BMP280;61493;51.008;14.088;2022-09-09T04:55:48;97602.81;;;12.58
73265;BMP280;61493;51.008;14.088;2022-09-09T04:58:14;97608.41;;;12.73
73265;BMP280;61493;51.008;14.088;2022-09-09T05:00:39;97609.09;;;12.95
73265;BMP280;61493;51.008;14.088;2022-09-09T05:03:05;97610.81;;;13.11
73265;BMP280;61493;51.008;14.088;2022-09-09T05:05:31;97611.06;;;13.04
73265;BMP280;61493;51.008;14.088;2022-09-09T05:08:06;97615.88;;;13.18
73265;BMP280;61493;51.008;14.088;2022-09-09T05:10:33;97620.91;;;13.16
73265;BMP280;61493;51.008;14.088;2022-09-09T05:12:58;97620.38;;;13.30
73265;BMP280;61493;51.008;14.088;2022-09-09T05:15:23;97619.34;;;13.37
73265;BMP280;61493;51.008;14.088;2022-09-09T05:17:49;97623.47;;;13.38
73265;BMP280;61493;51.008;14.088;2022-09-09T05:20:14;97619.03;;;13.44
73265;BMP280;61493;51.008;14.088;2022-09-09T05:22:40;97623.06;;;13.49
73265;BMP280;61493;51.008;14.088;2022-09-09T05:25:05;97633.03;;;13.57
73265;BMP280;61493;51.008;14.088;2022-09-09T05:27:33;97626.78;;;13.60
73265;BMP280;61493;51.008;14.088;2022-09-09T05:29:59;97622.03;;;13.64
73265;BMP280;61493;51.008;14.088;2022-09-09T05:32:24;97621.47;;;13.79
73265;BMP280;61493;51.008;14.088;2022-09-09T05:34:49;97627.59;;;13.88
73265;BMP280;61493;51.008;14.088;2022-09-09T05:37:15;97627.41;;;14.10
73265;BMP280;61493;51.008;14.088;2022-09-09T05:39:41;97636.03;;;14.33
73265;BMP280;61493;51.008;14.088;2022-09-09T05:42:07;97625.56;;;14.53
73265;BMP280;61493;51.008;14.088;2022-09-09T05:44:32;97632.66;;;14.74
73265;BMP280;61493;51.008;14.088;2022-09-09T05:46:57;97635.56;;;14.95
73265;BMP280;61493;51.008;14.088;2022-09-09T05:49:23;97636.31;;;14.86
73265;BMP280;61493;51.008;14.088;2022-09-09T05:51:48;97649.25;;;14.87
73265;BMP280;61493;51.008;14.088;2022-09-09T05:54:15;97636.94;;;14.81
73265;BMP280;61493;51.008;14.088;2022-09-09T05:56:40;97640.59;;;14.92
73265;BMP280;61493;51.008;14.088;2022-09-09T05:59:06;97639.53;;;14.99
73265;BMP280;61493;51.008;14.088;2022-09-09T06:01:36;97639.25;;;14.97
73265;BMP280;61493;51.008;14.088;2022-09-09T06:04:05;97643.84;;;15.06
73265;BMP280;61493;51.008;14.088;2022-09-09T06:06:33;97646.09;;;14.98
73265;BMP280;61493;51.008;14.088;2022-09-09T06:09:01;97641.53;;;14.89
73265;BMP280;61493;51.008;14.088;2022-09-09T06:11:29;97639.91;;;15.16
73265;BMP280;61493;51.008;14.088;2022-09-09T06:13:59;97651.31;;;15.35
73265;BMP280;61493;51.008;14.088;2022-09-09T06:16:26;97645.94;;;15.35
73265;BMP280;61493;51.008;14.088;2022-09-09T06:18:56;97641.34;;;15.59
73265;BMP280;61493;51.008;14.088;2022-09-09T06:21:27;97649.75;;;15.67
73265;BMP280;61493;51.008;14.088;2022-09-09T06:23:53;97655.09;;;15.90
73265;BMP280;61493;51.008;14.088;2022-09-09T06:26:21;97649.94;;;16.16
73265;BMP280;61493;51.008;14.088;2022-09-09T06:28:48;97649.78;;;16.20
73265;BMP280;61493;51.008;14.088;2022-09-09T06:31:16;97643.38;;;16.47
73265;BMP280;61493;51.008;14.088;2022-09-09T06:33:52;97650.72;;;16.61
73265;BMP280;61493;51.008;14.088;2022-09-09T06:36:20;97648.00;;;17.11
73265;BMP280;61493;51.008;14.088;2022-09-09T06:38:46;97652.16;;;17.47
73265;BMP280;61493;51.008;14.088;2022-09-09T06:41:14;97652.88;;;17.68
73265;BMP280;61493;51.008;14.088;2022-09-09T06:43:40;97654.97;;;19.04
73265;BMP280;61493;51.008;14.088;2022-09-09T06:46:08;97645.94;;;20.45
73265;BMP280;61493;51.008;14.088;2022-09-09T06:48:34;97647.19;;;20.21
73265;BMP280;61493;51.008;14.088;2022-09-09T06:51:05;97638.03;;;19.57
73265;BMP280;61493;51.008;14.088;2022-09-09T06:53:32;97650.44;;;19.27
73265;BMP280;61493;51.008;14.088;2022-09-09T06:58:35;97642.91;;;22.70
73265;BMP280;61493;51.008;14.088;2022-09-09T07:01:05;97650.38;;;23.64
73265;BMP280;61493;51.008;14.088;2022-09-09T07:03:31;97652.09;;;24.25
73265;BMP280;61493;51.008;14.088;2022-09-09T07:05:56;97654.22;;;23.17
73265;BMP280;61493;51.008;14.088;2022-09-09T07:08:22;97656.84;;;22.31
73265;BMP280;61493;51.008;14.088;2022-09-09T07:10:48;97646.25;;;22.33
73265;BMP280;61493;51.008;14.088;2022-09-09T07:13:14;97655.19;;;23.71
73265;BMP280;61493;51.008;14.088;2022-09-09T07:15:41;97645.19;;;24.63
73265;BMP280;61493;51.008;14.088;2022-09-09T07:18:07;97640.31;;;24.62
73265;BMP280;61493;51.008;14.088;2022-09-09T07:20:35;97643.88;;;25.17
73265;BMP280;61493;51.008;14.088;2022-09-09T07:23:01;97659.66;;;25.53
73265;BMP280;61493;51.008;14.088;2022-09-09T07:25:29;97658.25;;;26.01
73265;BMP280;61493;51.008;14.088;2022-09-09T07:27:55;97647.50;;;26.95
73265;BMP280;61493;51.008;14.088;2022-09-09T07:30:21;97652.22;;;26.51
73265;BMP280;61493;51.008;14.088;2022-09-09T07:32:46;97643.06;;;27.28
73265;BMP280;61493;51.008;14.088;2022-09-09T07:35:12;97650.16;;;27.92
73265;BMP280;61493;51.008;14.088;2022-09-09T07:37:37;97652.56;;;29.56
73265;BMP280;61493;51.008;14.088;2022-09-09T07:40:03;97654.09;;;28.29
73265;BMP280;61493;51.008;14.088;2022-09-09T07:42:30;97656.75;;;27.74
73265;BMP280;61493;51.008;14.088;2022-09-09T07:44:55;97651.91;;;28.43
73265;BMP280;61493;51.008;14.088;2022-09-09T07:47:20;97659.09;;;28.08
73265;BMP280;61493;51.008;14.088;2022-09-09T07:49:46;97645.47;;;29.20
73265;BMP280;61493;51.008;14.088;2022-09-09T07:52:12;97647.16;;;28.83
73265;BMP280;61493;51.008;14.088;2022-09-09T07:54:37;97652.16;;;27.99
73265;BMP280;61493;51.008;14.088;2022-09-09T07:57:02;97652.00;;;29.74
73265;BMP280;61493;51.008;14.088;2022-09-09T07:59:29;97652.84;;;30.36
73265;BMP280;61493;51.008;14.088;2022-09-09T08:01:55;97657.94;;;30.05
73265;BMP280;61493;51.008;14.088;2022-09-09T08:04:22;97657.91;;;30.40
73265;BMP280;61493;51.008;14.088;2022-09-09T08:06:54;97652.88;;;32.90
73265;BMP280;61493;51.008;14.088;2022-09-09T08:09:20;97665.28;;;31.64
73265;BMP280;61493;51.008;14.088;2022-09-09T08:11:46;97657.81;;;32.12
73265;BMP280;61493;51.008;14.088;2022-09-09T08:14:12;97665.44;;;32.52
73265;BMP280;61493;51.008;14.088;2022-09-09T08:16:41;97665.63;;;32.35
73265;BMP280;61493;51.008;14.088;2022-09-09T08:19:07;97660.66;;;32.62
73265;BMP280;61493;51.008;14.088;2022-09-09T08:21:34;97663.00;;;32.37
73265;BMP280;61493;51.008;14.088;2022-09-09T08:24:02;97662.22;;;31.50
73265;BMP280;61493;51.008;14.088;2022-09-09T08:26:36;97662.41;;;30.62
73265;BMP280;61493;51.008;14.088;2022-09-09T08:29:04;97669.69;;;29.81
73265;BMP280;61493;51.008;14.088;2022-09-09T08:31:32;97660.63;;;29.71
73265;BMP280;61493;51.008;14.088;2022-09-09T08:33:59;97658.69;;;30.94
73265;BMP280;61493;51.008;14.088;2022-09-09T08:36:27;97669.69;;;27.51
73265;BMP280;61493;51.008;14.088;2022-09-09T08:38:54;97663.91;;;25.07
73265;BMP280;61493;51.008;14.088;2022-09-09T08:44:16;97674.16;;;25.89
73265;BMP280;61493;51.008;14.088;2022-09-09T08:47:08;97670.91;;;26.76
73265;BMP280;61493;51.008;14.088;2022-09-09T08:52:29;97672.53;;;25.31
73265;BMP280;61493;51.008;14.088;2022-09-09T08:55:02;97682.19;;;27.38
73265;BMP280;61493;51.008;14.088;2022-09-09T08:57:30;97676.16;;;27.25
73265;BMP280;61493;51.008;14.088;2022-09-09T08:59:57;97675.50;;;26.24
73265;BMP280;61493;51.008;14.088;2022-09-09T09:05:27;97689.75;;;23.70
73265;BMP280;61493;51.008;14.088;2022-09-09T09:08:31;97682.22;;;23.26
73265;BMP280;61493;51.008;14.088;2022-09-09T09:11:01;97679.81;;;22.55
73265;BMP280;61493;51.008;14.088;2022-09-09T09:13:41;97687.19;;;21.94
73265;BMP280;61493;51.008;14.088;2022-09-09T09:16:26;97696.03;;;20.90
73265;BMP280;61493;51.008;14.088;2022-09-09T09:18:58;97689.44;;;20.52
73265;BMP280;61493;51.008;14.088;2022-09-09T09:21:59;97692.38;;;20.77
73265;BMP280;61493;51.008;14.088;2022-09-09T09:27:57;97692.13;;;20.30
73265;BMP280;61493;51.008;14.088;2022-09-09T09:30:22;97685.00;;;20.33
73265;BMP280;61493;51.008;14.088;2022-09-09T09:33:00;97681.06;;;20.17
73265;BMP280;61493;51.008;14.088;2022-09-09T09:35:27;97683.28;;;20.13
73265;BMP280;61493;51.008;14.088;2022-09-09T09:37:52;97689.41;;;20.08
73265;BMP280;61493;51.008;14.088;2022-09-09T09:40:20;97693.88;;;20.39
73265;BMP280;61493;51.008;14.088;2022-09-09T09:42:56;97702.09;;;19.85
73265;BMP280;61493;51.008;14.088;2022-09-09T09:48:09;97723.47;;;19.18
73265;BMP280;61493;51.008;14.088;2022-09-09T09:50:35;97724.53;;;19.00
73265;BMP280;61493;51.008;14.088;2022-09-09T09:53:04;97737.22;;;18.88
73265;BMP280;61493;51.008;14.088;2022-09-09T09:55:48;97734.66;;;19.11
73265;BMP280;61493;51.008;14.088;2022-09-09T09:58:15;97735.91;;;19.15
73265;BMP280;61493;51.008;14.088;2022-09-09T10:00:52;97739.59;;;19.12
73265;BMP280;61493;51.008;14.088;2022-09-09T10:05:48;97724.50;;;18.63
73265;BMP280;61493;51.008;14.088;2022-09-09T10:08:16;97704.81;;;18.20
73265;BMP280;61493;51.008;14.088;2022-09-09T10:19:01;97708.72;;;19.13
73265;BMP280;61493;51.008;14.088;2022-09-09T10:21:56;97702.34;;;19.16
73265;BMP280;61493;51.008;14.088;2022-09-09T10:30:05;97693.09;;;26.15
73265;BMP280;61493;51.008;14.088;2022-09-09T10:38:08;97706.94;;;26.82
73265;BMP280;61493;51.008;14.088;2022-09-09T10:51:41;97684.44;;;31.81
73265;BMP280;61493;51.008;14.088;2022-09-09T10:56:42;97675.72;;;32.32
73265;BMP280;61493;51.008;14.088;2022-09-09T10:59:16;97666.34;;;32.16
73265;BMP280;61493;51.008;14.088;2022-09-09T11:01:48;97673.44;;;32.48
73265;BMP280;61493;51.008;14.088;2022-09-09T11:04:25;97666.13;;;31.11
73265;BMP280;61493;51.008;14.088;2022-09-09T11:06:54;97667.97;;;30.98
73265;BMP280;61493;51.008;14.088;2022-09-09T11:09:23;97657.69;;;31.26
73265;BMP280;61493;51.008;14.088;2022-09-09T11:11:53;97666.63;;;32.20
73265;BMP280;61493;51.008;14.088;2022-09-09T11:14:30;97665.22;;;33.19
73265;BMP280;61493;51.008;14.088;2022-09-09T11:17:02;97655.50;;;34.48
73265;BMP280;61493;51.008;14.088;2022-09-09T11:19:34;97655.53;;;33.82
73265;BMP280;61493;51.008;14.088;2022-09-09T11:22:31;97655.88;;;33.03
73265;BMP280;61493;51.008;14.088;2022-09-09T11:25:13;97650.31;;;33.65
73265;BMP280;61493;51.008;14.088;2022-09-09T11:28:07;97656.84;;;32.77
73265;BMP280;61493;51.008;14.088;2022-09-09T11:40:59;97640.16;;;31.96
73265;BMP280;61493;51.008;14.088;2022-09-09T11:43:29;97641.94;;;30.46
73265;BMP280;61493;51.008;14.088;2022-09-09T11:45:58;97646.19;;;28.64
73265;BMP280;61493;51.008;14.088;2022-09-09T11:48:35;97637.38;;;26.03
73265;BMP280;61493;51.008;14.088;2022-09-09T11:51:08;97627.28;;;24.94
73265;BMP280;61493;51.008;14.088;2022-09-09T11:53:46;97624.72;;;24.49
73265;BMP280;61493;51.008;14.088;2022-09-09T11:56:24;97625.84;;;24.67
73265;BMP280;61493;51.008;14.088;2022-09-09T11:58:57;97622.47;;;25.00
73265;BMP280;61493;51.008;14.088;2022-09-09T12:04:25;97618.31;;;23.62
73265;BMP280;61493;51.008;14.088;2022-09-09T12:10:05;97623.06;;;22.81
73265;BMP280;61493;51.008;14.088;2022-09-09T12:12:44;97632.28;;;22.54
73265;BMP280;61493;51.008;14.088;2022-09-09T12:17:49;97632.47;;;21.71
73265;BMP280;61493;51.008;14.088;2022-09-09T12:20:38;97625.59;;;21.24
73265;BMP280;61493;51.008;14.088;2022-09-09T12:26:00;97619.31;;;20.88
73265;BMP280;61493;51.008;14.088;2022-09-09T12:28:44;97624.09;;;20.54
73265;BMP280;61493;51.008;14.088;2022-09-09T12:31:17;97620.41;;;20.23
73265;BMP280;61493;51.008;14.088;2022-09-09T12:33:47;97621.16;;;20.13
73265;BMP280;61493;51.008;14.088;2022-09-09T12:36:27;97630.22;;;19.82
73265;BMP280;61493;51.008;14.088;2022-09-09T12:38:55;97636.94;;;19.27
73265;BMP280;61493;51.008;14.088;2022-09-09T12:41:24;97635.44;;;18.41
73265;BMP280;61493;51.008;14.088;2022-09-09T12:43:50;97623.31;;;17.73
73265;BMP280;61493;51.008;14.088;2022-09-09T12:46:36;97623.97;;;16.87
73265;BMP280;61493;51.008;14.088;2022-09-09T12:49:02;97601.78;;;16.57
73265;BMP280;61493;51.008;14.088;2022-09-09T12:51:30;97599.88;;;16.28
73265;BMP280;61493;51.008;14.088;2022-09-09T12:53:59;97595.16;;;16.38
73265;BMP280;61493;51.008;14.088;2022-09-09T12:56:27;97595.31;;;16.64
73265;BMP280;61493;51.008;14.088;2022-09-09T12:58:56;97596.91;;;16.91
73265;BMP280;61493;51.008;14.088;2022-09-09T13:01:26;97596.41;;;17.27
73265;BMP280;61493;51.008;14.088;2022-09-09T13:03:52;97600.75;;;17.45
73265;BMP280;61493;51.008;14.088;2022-09-09T13:06:26;97587.91;;;17.54
73265;BMP280;61493;51.008;14.088;2022-09-09T13:08:53;97584.22;;;17.78
73265;BMP280;61493;51.008;14.088;2022-09-09T13:11:34;97588.75;;;18.18
73265;BMP280;61493;51.008;14.088;2022-09-09T13:14:00;97594.31;;;18.77
73265;BMP280;61493;51.008;14.088;2022-09-09T13:16:28;97573.25;;;18.81
73265;BMP280;61493;51.008;14.088;2022-09-09T13:18:58;97579.59;;;18.78
73265;BMP280;61493;51.008;14.088;2022-09-09T13:21:38;97573.28;;;18.92
73265;BMP280;61493;51.008;14.088;2022-09-09T13:24:06;97565.03;;;19.07
73265;BMP280;61493;51.008;14.088;2022-09-09T13:26:34;97564.25;;;18.90
73265;BMP280;61493;51.008;14.088;2022-09-09T13:29:19;97578.56;;;18.70
73265;BMP280;61493;51.008;14.088;2022-09-09T13:31:45;97580.44;;;18.58
73265;BMP280;61493;51.008;14.088;2022-09-09T13:34:25;97575.63;;;18.68
73265;BMP280;61493;51.008;14.088;2022-09-09T13:36:55;97572.22;;;18.68
73265;BMP280;61493;51.008;14.088;2022-09-09T13:39:22;97596.25;;;18.71
73265;BMP280;61493;51.008;14.088;2022-09-09T13:41:48;97583.97;;;18.70
73265;BMP280;61493;51.008;14.088;2022-09-09T13:44:39;97592.13;;;18.81
73265;BMP280;61493;51.008;14.088;2022-09-09T13:47:18;97598.78;;;18.91
73265;BMP280;61493;51.008;14.088;2022-09-09T13:49:44;97582.56;;;18.80
73265;BMP280;61493;51.008;14.088;2022-09-09T13:52:18;97568.09;;;18.72
73265;BMP280;61493;51.008;14.088;2022-09-09T13:54:47;97577.88;;;18.75
73265;BMP280;61493;51.008;14.088;2022-09-09T13:57:19;97578.13;;;18.72
73265;BMP280;61493;51.008;14.088;2022-09-09T13:59:46;97565.16;;;18.81
73265;BMP280;61493;51.008;14.088;2022-09-09T14:02:11;97559.84;;;18.50
73265;BMP280;61493;51.008;14.088;2022-09-09T14:04:37;97564.19;;;18.42
73265;BMP280;61493;51.008;14.088;2022-09-09T14:07:02;97564.31;;;18.21
73265;BMP280;61493;51.008;14.088;2022-09-09T14:09:28;97556.19;;;18.16
73265;BMP280;61493;51.008;14.088;2022-09-09T14:11:53;97560.34;;;18.17
73265;BMP280;61493;51.008;14.088;2022-09-09T14:14:20;97554.22;;;18.16
73265;BMP280;61493;51.008;14.088;2022-09-09T14:16:45;97556.22;;;18.21
73265;BMP280;61493;51.008;14.088;2022-09-09T14:19:11;97565.78;;;18.22
73265;BMP280;61493;51.008;14.088;2022-09-09T14:21:36;97569.63;;;18.16
73265;BMP280;61493;51.008;14.088;2022-09-09T14:24:02;97571.91;;;17.92
73265;BMP280;61493;51.008;14.088;2022-09-09T14:26:27;97558.22;;;17.95
73265;BMP280;61493;51.008;14.088;2022-09-09T14:28:54;97556.91;;;18.16
73265;BMP280;61493;51.008;14.088;2022-09-09T14:31:20;97552.97;;;18.43
73265;BMP280;61493;51.008;14.088;2022-09-09T14:33:46;97533.81;;;18.78
73265;BMP280;61493;51.008;14.088;2022-09-09T14:36:11;97533.34;;;18.91
73265;BMP280;61493;51.008;14.088;2022-09-09T14:38:38;97533.34;;;18.91
73265;BMP280;61493;51.008;14.088;2022-09-09T14:41:05;97531.47;;;19.08
73265;BMP280;61493;51.008;14.088;2022-09-09T14:43:30;97535.16;;;19.16
73265;BMP280;61493;51.008;14.088;2022-09-09T14:46:03;97533.22;;;19.34
73265;BMP280;61493;51.008;14.088;2022-09-09T14:48:30;97535.19;;;19.33
73265;BMP280;61493;51.008;14.088;2022-09-09T14:50:55;97521.94;;;19.24
73265;BMP280;61493;51.008;14.088;2022-09-09T14:53:21;97527.84;;;19.17
73265;BMP280;61493;51.008;14.088;2022-09-09T14:55:49;97527.97;;;18.91
73265;BMP280;61493;51.008;14.088;2022-09-09T14:58:15;97536.97;;;18.71
73265;BMP280;61493;51.008;14.088;2022-09-09T15:00:40;97535.69;;;18.61
73265;BMP280;61493;51.008;14.088;2022-09-09T15:03:06;97539.69;;;18.34
73265;BMP280;61493;51.008;14.088;2022-09-09T15:05:31;97545.81;;;18.40
73265;BMP280;61493;51.008;14.088;2022-09-09T15:07:57;97550.69;;;18.36
73265;BMP280;61493;51.008;14.088;2022-09-09T15:10:23;97547.47;;;18.27
73265;BMP280;61493;51.008;14.088;2022-09-09T15:12:49;97533.78;;;18.30
73265;BMP280;61493;51.008;14.088;2022-09-09T15:15:14;97525.69;;;18.30
73265;BMP280;61493;51.008;14.088;2022-09-09T15:17:40;97531.78;;;18.25
73265;BMP280;61493;51.008;14.088;2022-09-09T15:20:05;97547.41;;;18.15
73265;BMP280;61493;51.008;14.088;2022-09-09T15:22:31;97556.63;;;18.09
73265;BMP280;61493;51.008;14.088;2022-09-09T15:24:57;97566.19;;;18.10
73265;BMP280;61493;51.008;14.088;2022-09-09T15:27:22;97569.03;;;18.01
73265;BMP280;61493;51.008;14.088;2022-09-09T15:29:48;97564.28;;;17.90
73265;BMP280;61493;51.008;14.088;2022-09-09T15:32:14;97570.66;;;17.87
73265;BMP280;61493;51.008;14.088;2022-09-09T15:34:39;97568.81;;;17.78
73265;BMP280;61493;51.008;14.088;2022-09-09T15:37:04;97566.94;;;17.59
73265;BMP280;61493;51.008;14.088;2022-09-09T15:39:31;97555.44;;;17.12
73265;BMP280;61493;51.008;14.088;2022-09-09T15:41:56;97561.94;;;16.70
73265;BMP280;61493;51.008;14.088;2022-09-09T15:44:22;97565.16;;;16.39
73265;BMP280;61493;51.008;14.088;2022-09-09T15:46:52;97558.22;;;16.33
73265;BMP280;61493;51.008;14.088;2022-09-09T15:49:22;97552.69;;;16.21
73265;BMP280;61493;51.008;14.088;2022-09-09T15:51:52;97551.31;;;16.11
73265;BMP280;61493;51.008;14.088;2022-09-09T15:54:18;97551.47;;;16.22
73265;BMP280;61493;51.008;14.088;2022-09-09T15:56:46;97544.81;;;16.33
73265;BMP280;61493;51.008;14.088;2022-09-09T15:59:16;97547.50;;;16.33